createdAt,value
2022-10-05T00:00:04.863Z,14.60
2022-10-05T00:02:36.152Z,12.80
2022-10-05T00:05:19.792Z,13.20
2022-10-05T00:07:52.510Z,13.60
2022-10-05T00:10:24.083Z,15.50
2022-10-05T00:12:55.574Z,13.70
2022-10-05T00:15:27.535Z,12.20
2022-10-05T00:17:59.857Z,13.10
2022-10-05T00:20:31.376Z,15.30
2022-10-05T00:23:06.099Z,13.30
2022-10-05T00:28:16.874Z,14.90
2022-10-05T00:30:48.411Z,14.80
2022-10-05T00:33:19.607Z,15.30
2022-10-05T00:35:50.907Z,15.10
2022-10-05T00:38:23.058Z,16.10
2022-10-05T00:41:07.597Z,18.30
2022-10-05T00:43:56.730Z,16.10
2022-10-05T00:46:34.893Z,17.80
2022-10-05T00:49:15.580Z,14.50
2022-10-05T00:51:54.723Z,16.70
2022-10-05T00:54:33.157Z,15.70
2022-10-05T00:57:29.122Z,17.30
2022-10-05T01:00:06.593Z,17.10
2022-10-05T01:02:49.316Z,17.60
2022-10-05T01:05:34.874Z,17.50
2022-10-05T01:08:17.731Z,15.30
2022-10-05T01:10:56.435Z,20.20
2022-10-05T01:13:33.945Z,17.20
2022-10-05T01:16:15.132Z,19.10
2022-10-05T01:18:53.861Z,18.10
2022-10-05T01:21:27.278Z,24.30
2022-10-05T01:24:36.201Z,19.70
2022-10-05T01:27:23.752Z,19.80
2022-10-05T01:30:00.912Z,20.90
2022-10-05T01:32:37.171Z,16.10
2022-10-05T01:35:19.942Z,17.70
2022-10-05T01:38:09.717Z,18.00
2022-10-05T01:40:52.493Z,15.50
2022-10-05T01:43:30.695Z,20.00
2022-10-05T01:46:11.721Z,15.10
2022-10-05T01:48:54.878Z,15.30
2022-10-05T01:51:35.588Z,16.10
2022-10-05T01:54:19.032Z,16.00
2022-10-05T01:57:02.141Z,14.70
2022-10-05T01:59:47.703Z,13.90
2022-10-05T02:02:22.452Z,15.70
2022-10-05T02:07:38.926Z,15.60
2022-10-05T02:10:16.738Z,18.40
2022-10-05T02:12:51.971Z,15.50
2022-10-05T02:15:28.825Z,14.70
2022-10-05T02:18:05.766Z,11.50
2022-10-05T02:20:39.641Z,15.20
2022-10-05T02:23:14.114Z,17.50
2022-10-05T02:25:48.134Z,14.00
2022-10-05T02:28:24.089Z,13.80
2022-10-05T02:31:00.225Z,16.40
2022-10-05T02:33:34.158Z,13.20
2022-10-05T02:36:12.887Z,15.50
2022-10-05T02:38:57.505Z,11.60
2022-10-05T02:41:44.176Z,12.70
2022-10-05T02:44:28.302Z,12.70
2022-10-05T02:47:07.823Z,10.00
2022-10-05T02:49:42.756Z,14.10
2022-10-05T02:52:20.383Z,18.70
2022-10-05T02:55:03.712Z,12.50
2022-10-05T02:57:40.105Z,14.40
2022-10-05T03:00:15.229Z,11.50
2022-10-05T03:02:53.998Z,10.70
2022-10-05T03:05:29.470Z,13.00
2022-10-05T03:08:05.169Z,12.00
2022-10-05T03:10:44.496Z,14.00
2022-10-05T03:13:26.919Z,12.00
2022-10-05T03:16:12.611Z,17.00
2022-10-05T03:18:55.753Z,13.30
2022-10-05T03:21:41.199Z,14.10
2022-10-05T03:24:28.217Z,12.40
2022-10-05T03:27:08.753Z,12.40
2022-10-05T03:29:45.718Z,15.20
2022-10-05T03:32:26.750Z,12.90
2022-10-05T03:35:10.040Z,12.10
2022-10-05T03:37:57.127Z,12.40
2022-10-05T03:40:41.431Z,13.60
2022-10-05T03:43:34.557Z,15.50
2022-10-05T03:46:13.108Z,15.60
2022-10-05T03:48:53.950Z,14.90
2022-10-05T03:51:34.242Z,12.30
2022-10-05T03:54:13.391Z,17.30
2022-10-05T03:56:50.662Z,15.40
2022-10-05T03:59:31.520Z,13.90
2022-10-05T04:02:07.557Z,14.10
2022-10-05T04:04:44.287Z,14.30
2022-10-05T04:07:32.179Z,12.90
2022-10-05T04:10:05.052Z,14.10
2022-10-05T04:12:42.261Z,12.60
2022-10-05T04:15:20.765Z,13.00
2022-10-05T04:17:57.232Z,9.80
2022-10-05T04:20:35.810Z,10.30
2022-10-05T04:23:16.906Z,12.40
2022-10-05T04:25:52.042Z,13.90
2022-10-05T04:28:32.189Z,11.30
2022-10-05T04:31:08.201Z,13.80
2022-10-05T04:33:39.444Z,13.10
2022-10-05T04:36:22.626Z,14.10
2022-10-05T04:39:07.024Z,16.20
2022-10-05T04:41:55.157Z,12.50
2022-10-05T04:44:50.879Z,12.00
2022-10-05T04:48:06.742Z,12.40
2022-10-05T04:50:57.638Z,10.20
2022-10-05T04:53:35.091Z,12.70
2022-10-05T04:56:14.191Z,10.50
2022-10-05T04:59:05.523Z,10.50
2022-10-05T05:01:52.540Z,11.50
2022-10-05T05:04:38.065Z,11.60
2022-10-05T05:07:20.231Z,13.00
2022-10-05T05:10:24.890Z,13.60
2022-10-05T05:13:08.941Z,11.40
2022-10-05T05:15:51.520Z,13.30
2022-10-05T05:18:47.206Z,12.70
2022-10-05T05:21:33.188Z,12.50
2022-10-05T05:24:14.059Z,11.30
2022-10-05T05:27:02.648Z,13.50
2022-10-05T05:29:45.223Z,16.10
2022-10-05T05:32:33.520Z,13.30
2022-10-05T05:35:28.553Z,13.60
2022-10-05T05:38:10.575Z,14.30
2022-10-05T05:40:49.072Z,12.70
2022-10-05T05:43:28.208Z,12.50
2022-10-05T05:46:06.242Z,11.40
2022-10-05T05:48:42.845Z,10.40
2022-10-05T05:51:19.058Z,12.40
2022-10-05T05:53:56.443Z,13.10
2022-10-05T05:56:34.014Z,11.70
2022-10-05T05:59:14.180Z,11.20
2022-10-05T06:01:50.594Z,9.30
2022-10-05T06:04:27.940Z,11.70
2022-10-05T06:07:03.350Z,11.60
2022-10-05T06:09:40.722Z,15.10
2022-10-05T06:12:15.777Z,12.30
2022-10-05T06:14:52.060Z,9.70
2022-10-05T06:17:28.416Z,10.70
2022-10-05T06:20:05.331Z,14.60
2022-10-05T06:22:42.437Z,11.60
2022-10-05T06:25:30.304Z,9.50
2022-10-05T06:28:12.814Z,11.30
2022-10-05T06:30:57.727Z,10.20
2022-10-05T06:33:43.744Z,9.80
2022-10-05T06:36:25.157Z,12.30
2022-10-05T06:39:26.202Z,10.80
2022-10-05T06:42:14.042Z,10.20
2022-10-05T06:44:54.937Z,9.60
2022-10-05T06:47:37.394Z,11.50
2022-10-05T06:50:20.578Z,10.10
2022-10-05T06:53:04.248Z,10.60
2022-10-05T06:55:45.922Z,9.70
2022-10-05T06:58:37.755Z,8.90
2022-10-05T07:01:15.560Z,11.20
2022-10-05T07:03:58.851Z,8.60
2022-10-05T07:06:37.262Z,10.30
2022-10-05T07:09:24.413Z,10.10
2022-10-05T07:12:09.265Z,7.30
2022-10-05T07:14:54.131Z,7.10
2022-10-05T07:17:45.942Z,11.10
2022-10-05T07:20:24.057Z,7.50
2022-10-05T07:23:25.465Z,7.80
2022-10-05T07:26:05.148Z,8.70
2022-10-05T07:28:46.378Z,9.10
2022-10-05T07:31:28.830Z,10.00
2022-10-05T07:34:07.117Z,9.10
2022-10-05T07:37:03.044Z,9.90
2022-10-05T07:39:59.481Z,10.00
2022-10-05T07:42:50.514Z,10.10
2022-10-05T07:45:31.587Z,10.70
2022-10-05T07:48:08.868Z,12.10
2022-10-05T07:50:46.016Z,14.90
2022-10-05T07:53:21.402Z,11.40
2022-10-05T07:55:55.728Z,10.40
2022-10-05T07:58:31.685Z,10.70
2022-10-05T08:01:10.215Z,10.00
2022-10-05T08:03:52.428Z,12.60
2022-10-05T08:06:41.166Z,9.90
2022-10-05T08:09:30.926Z,11.80
2022-10-05T08:12:18.224Z,8.90
2022-10-05T08:14:58.402Z,10.60
2022-10-05T08:17:41.098Z,12.10
2022-10-05T08:20:31.563Z,10.00
2022-10-05T08:23:08.795Z,10.20
2022-10-05T08:25:55.283Z,10.40
2022-10-05T08:28:29.847Z,9.50
2022-10-05T08:33:40.691Z,11.20
2022-10-05T08:36:17.401Z,9.50
2022-10-05T08:38:54.937Z,10.80
2022-10-05T08:41:52.866Z,12.20
2022-10-05T08:45:06.058Z,10.00
2022-10-05T08:48:06.512Z,9.10
2022-10-05T08:51:17.841Z,9.50
2022-10-05T08:57:02.107Z,10.50
2022-10-05T08:59:59.053Z,9.50
2022-10-05T09:02:41.990Z,8.60
2022-10-05T09:05:38.011Z,11.40
2022-10-05T09:08:31.323Z,12.40
2022-10-05T09:11:19.165Z,10.00
2022-10-05T09:14:29.756Z,8.10
2022-10-05T09:17:39.202Z,9.50
2022-10-05T09:20:32.399Z,9.30
2022-10-05T09:23:16.078Z,10.80
2022-10-05T09:25:58.982Z,13.40
2022-10-05T09:28:39.682Z,10.10
2022-10-05T09:31:41.227Z,10.80
2022-10-05T09:34:50.840Z,9.60
2022-10-05T09:37:37.505Z,9.90
2022-10-05T09:40:41.935Z,11.10
2022-10-05T09:43:40.446Z,12.20
2022-10-05T09:46:36.446Z,9.40
2022-10-05T09:49:40.264Z,8.50
2022-10-05T09:52:27.993Z,12.00
2022-10-05T09:55:43.948Z,8.70
2022-10-05T09:58:48.568Z,9.80
2022-10-05T10:01:35.267Z,11.10
2022-10-05T10:04:44.213Z,9.90
2022-10-05T10:07:37.305Z,10.40
2022-10-05T10:10:39.140Z,10.50
2022-10-05T10:13:32.039Z,13.60
2022-10-05T10:16:17.601Z,10.50
2022-10-05T10:19:21.146Z,9.70
2022-10-05T10:22:31.349Z,10.40
2022-10-05T10:25:19.822Z,10.60
2022-10-05T10:28:08.618Z,10.60
2022-10-05T10:31:07.836Z,8.40
2022-10-05T10:34:11.936Z,11.10
2022-10-05T10:37:06.472Z,8.80
2022-10-05T10:39:55.656Z,8.30
2022-10-05T10:42:38.937Z,8.10
2022-10-05T10:45:21.347Z,12.00
2022-10-05T10:48:02.690Z,10.10
2022-10-05T10:50:50.975Z,11.90
2022-10-05T10:54:03.754Z,9.30
2022-10-05T10:57:00.008Z,11.20
2022-10-05T11:00:18.347Z,7.60
2022-10-05T11:03:05.125Z,9.80
2022-10-05T11:05:55.200Z,8.60
2022-10-05T11:08:59.354Z,9.20
2022-10-05T11:12:03.786Z,10.20
2022-10-05T11:14:52.607Z,10.60
2022-10-05T11:17:57.173Z,7.60
2022-10-05T11:20:49.581Z,11.30
2022-10-05T11:23:43.836Z,9.10
2022-10-05T11:26:32.722Z,7.10
2022-10-05T11:29:29.436Z,9.40
2022-10-05T11:32:31.779Z,8.10
2022-10-05T11:35:24.987Z,9.60
2022-10-05T11:38:17.385Z,10.30
2022-10-05T11:41:13.424Z,8.50
2022-10-05T11:44:07.043Z,7.80
2022-10-05T11:46:49.830Z,8.40
2022-10-05T11:49:34.428Z,8.30
2022-10-05T11:52:12.721Z,8.10
2022-10-05T11:55:25.136Z,9.70
2022-10-05T11:58:01.210Z,8.60
2022-10-05T12:00:40.687Z,6.60
2022-10-05T12:03:39.067Z,7.00
2022-10-05T12:06:26.623Z,6.30
2022-10-05T12:09:12.401Z,10.00
2022-10-05T12:11:58.635Z,7.40
2022-10-05T12:14:42.628Z,6.10
2022-10-05T12:17:24.394Z,7.10
2022-10-05T12:20:01.518Z,4.60
2022-10-05T12:22:38.954Z,9.50
2022-10-05T12:25:25.893Z,5.60
2022-10-05T12:28:00.121Z,7.50
2022-10-05T12:30:52.971Z,10.20
2022-10-05T12:33:29.309Z,7.70
2022-10-05T12:36:07.156Z,7.60
2022-10-05T12:38:44.497Z,7.30
2022-10-05T12:41:24.243Z,6.60
2022-10-05T12:44:11.351Z,6.40
2022-10-05T12:46:51.641Z,6.50
2022-10-05T12:50:01.575Z,5.20
2022-10-05T12:52:47.354Z,4.10
2022-10-05T12:55:26.851Z,6.20
2022-10-05T12:58:09.365Z,6.40
2022-10-05T13:00:52.050Z,5.60
2022-10-05T13:03:32.028Z,6.40
2022-10-05T13:06:13.354Z,4.40
2022-10-05T13:08:53.475Z,4.50
2022-10-05T13:11:35.322Z,5.10
2022-10-05T13:14:16.734Z,6.20
2022-10-05T13:16:55.494Z,4.40
2022-10-05T13:19:40.667Z,5.10
2022-10-05T13:22:28.711Z,4.20
2022-10-05T13:25:10.618Z,6.00
2022-10-05T13:27:47.052Z,5.00
2022-10-05T13:30:20.807Z,5.00
2022-10-05T13:32:58.846Z,7.20
2022-10-05T13:35:45.306Z,8.50
2022-10-05T13:38:31.266Z,7.80
2022-10-05T13:41:16.109Z,5.70
2022-10-05T13:46:29.896Z,5.50
2022-10-05T13:49:10.745Z,8.20
2022-10-05T13:51:48.430Z,6.10
2022-10-05T13:54:24.282Z,7.30
2022-10-05T13:57:03.525Z,8.00
2022-10-05T13:59:43.739Z,7.50
2022-10-05T14:02:21.849Z,5.50
2022-10-05T14:04:59.865Z,5.70
2022-10-05T14:07:39.554Z,6.30
2022-10-05T14:10:29.779Z,5.90
2022-10-05T14:13:02.429Z,6.00
2022-10-05T14:15:41.312Z,8.70
2022-10-05T14:18:28.012Z,7.40
2022-10-05T14:21:05.130Z,8.90
2022-10-05T14:23:36.521Z,6.50
2022-10-05T14:26:31.561Z,8.30
2022-10-05T14:29:05.513Z,8.40
2022-10-05T14:31:38.664Z,8.10
2022-10-05T14:34:32.244Z,4.40
2022-10-05T14:37:10.320Z,5.30
2022-10-05T14:39:44.531Z,6.90
2022-10-05T14:42:21.496Z,7.50
2022-10-05T14:45:12.987Z,8.10
2022-10-05T14:47:51.528Z,8.30
2022-10-05T14:50:29.800Z,13.40
2022-10-05T14:53:19.224Z,10.40
2022-10-05T14:56:32.502Z,7.70
2022-10-05T14:59:30.876Z,5.60
2022-10-05T15:02:36.987Z,7.80
2022-10-05T15:05:17.058Z,8.10
2022-10-05T15:07:50.512Z,7.10
2022-10-05T15:10:43.649Z,7.20
2022-10-05T15:13:20.294Z,9.20
2022-10-05T15:15:54.932Z,8.10
2022-10-05T15:18:37.624Z,9.70
2022-10-05T15:21:26.641Z,9.00
2022-10-05T15:24:02.478Z,6.70
2022-10-05T15:26:45.341Z,7.80
2022-10-05T15:29:30.572Z,5.80
2022-10-05T15:32:14.816Z,9.10
2022-10-05T15:34:58.645Z,5.90
2022-10-05T15:37:37.786Z,4.90
2022-10-05T15:40:17.537Z,5.00
2022-10-05T15:42:50.737Z,8.40
2022-10-05T15:45:30.421Z,5.70
2022-10-05T15:48:05.160Z,6.90
2022-10-05T15:50:44.012Z,6.00
2022-10-05T15:53:25.263Z,8.00
2022-10-05T15:56:02.845Z,6.10
2022-10-05T15:58:55.318Z,7.70
2022-10-05T16:01:48.559Z,6.40
2022-10-05T16:04:27.552Z,8.20
2022-10-05T16:07:20.142Z,8.60
2022-10-05T16:09:59.643Z,11.30
2022-10-05T16:12:50.151Z,9.30
2022-10-05T16:15:30.011Z,9.40
2022-10-05T16:18:19.310Z,9.60
2022-10-05T16:20:57.340Z,9.90
2022-10-05T16:23:39.124Z,9.90
2022-10-05T16:26:26.240Z,15.00
2022-10-05T16:29:07.012Z,10.10
2022-10-05T16:31:47.378Z,9.00
2022-10-05T16:34:31.164Z,8.20
2022-10-05T16:37:10.995Z,9.20
2022-10-05T16:39:53.216Z,8.50
2022-10-05T16:42:37.016Z,8.20
2022-10-05T16:45:18.230Z,8.80
2022-10-05T16:47:56.976Z,12.50
2022-10-05T16:50:37.282Z,11.60
2022-10-05T16:53:17.149Z,10.60
2022-10-05T16:55:54.359Z,7.80
2022-10-05T16:58:31.127Z,8.20
2022-10-05T17:01:24.701Z,8.30
2022-10-05T17:04:08.239Z,9.60
2022-10-05T17:07:03.423Z,9.60
2022-10-05T17:09:59.551Z,8.60
2022-10-05T17:12:48.385Z,7.10
2022-10-05T17:15:47.999Z,7.00
2022-10-05T17:18:30.285Z,5.90
2022-10-05T17:21:08.283Z,6.60
2022-10-05T17:23:55.125Z,7.30
2022-10-05T17:26:56.896Z,8.30
2022-10-05T17:29:47.781Z,11.90
2022-10-05T17:32:39.740Z,7.80
2022-10-05T17:35:22.408Z,11.50
2022-10-05T17:38:22.118Z,13.80
2022-10-05T17:41:29.807Z,11.90
2022-10-05T17:44:24.716Z,11.20
2022-10-05T17:46:58.676Z,10.40
2022-10-05T17:50:16.236Z,11.00
2022-10-05T17:53:27.661Z,12.70
2022-10-05T17:56:08.280Z,10.10
2022-10-05T17:59:06.919Z,10.50
2022-10-05T18:01:40.411Z,13.70
2022-10-05T18:04:35.092Z,9.60
2022-10-05T18:07:19.883Z,10.90
2022-10-05T18:10:23.485Z,11.00
2022-10-05T18:13:22.607Z,9.50
2022-10-05T18:15:54.559Z,8.10
2022-10-05T18:18:57.981Z,9.00
2022-10-05T18:21:35.795Z,9.20
2022-10-05T18:24:37.144Z,8.80
2022-10-05T18:27:30.579Z,8.60
2022-10-05T18:30:15.797Z,9.50
2022-10-05T18:35:30.115Z,9.10
2022-10-05T18:38:11.477Z,8.60
2022-10-05T18:40:54.282Z,7.90
2022-10-05T18:43:34.784Z,10.20
2022-10-05T18:46:18.131Z,8.00
2022-10-05T18:49:01.571Z,9.60
2022-10-05T18:51:51.532Z,10.40
2022-10-05T18:54:40.365Z,10.90
2022-10-05T18:57:41.213Z,9.40
2022-10-05T19:00:17.855Z,8.20
2022-10-05T19:02:54.690Z,8.60
2022-10-05T19:05:48.083Z,9.70
2022-10-05T19:08:30.126Z,10.60
2022-10-05T19:11:12.575Z,9.60
2022-10-05T19:13:52.026Z,10.50
2022-10-05T19:16:43.344Z,10.30
2022-10-05T19:19:33.611Z,11.30
2022-10-05T19:22:10.081Z,10.90
2022-10-05T19:24:50.626Z,9.70
2022-10-05T19:27:37.206Z,12.70
2022-10-05T19:30:23.332Z,13.10
2022-10-05T19:33:09.209Z,11.70
2022-10-05T19:35:57.696Z,10.70
2022-10-05T19:38:34.835Z,10.80
2022-10-05T19:41:16.364Z,12.20
2022-10-05T19:44:03.766Z,10.60
2022-10-05T19:46:51.255Z,10.50
2022-10-05T19:49:52.108Z,12.90
2022-10-05T19:52:31.385Z,11.30
2022-10-05T19:55:15.012Z,8.60
2022-10-05T19:57:54.025Z,9.70
2022-10-05T20:00:35.136Z,12.20
2022-10-05T20:03:28.359Z,8.80
2022-10-05T20:06:01.478Z,9.10
2022-10-05T20:08:40.884Z,9.80
2022-10-05T20:11:14.630Z,8.40
2022-10-05T20:13:47.783Z,11.20
2022-10-05T20:16:58.315Z,8.40
2022-10-05T20:19:54.400Z,10.80
2022-10-05T20:22:39.840Z,10.40
2022-10-05T20:25:32.512Z,9.50
2022-10-05T20:28:04.178Z,8.90
2022-10-05T20:30:35.547Z,8.50
2022-10-05T20:33:11.973Z,7.60
2022-10-05T20:35:43.752Z,11.30
2022-10-05T20:38:15.178Z,9.80
2022-10-05T20:40:46.926Z,9.40
2022-10-05T20:43:25.297Z,10.80
2022-10-05T20:45:56.909Z,8.90
2022-10-05T20:48:28.804Z,9.10
2022-10-05T20:51:00.555Z,11.60
2022-10-05T20:53:31.735Z,14.40
2022-10-05T20:56:04.768Z,17.80
2022-10-05T20:58:36.762Z,8.80
2022-10-05T21:01:19.369Z,9.20
2022-10-05T21:03:51.140Z,10.30
2022-10-05T21:06:23.198Z,11.30
2022-10-05T21:08:54.518Z,9.20
2022-10-05T21:11:28.327Z,10.60
2022-10-05T21:14:04.881Z,8.60
2022-10-05T21:16:38.385Z,7.60
2022-10-05T21:19:12.478Z,14.30
2022-10-05T21:21:44.966Z,10.40
2022-10-05T21:24:17.570Z,9.70
2022-10-05T21:26:49.262Z,11.80
2022-10-05T21:29:20.496Z,9.90
2022-10-05T21:31:51.975Z,10.00
2022-10-05T21:34:23.685Z,8.70
2022-10-05T21:36:55.408Z,8.80
2022-10-05T21:39:27.644Z,9.90
2022-10-05T21:41:58.851Z,7.90
2022-10-05T21:44:30.431Z,10.10
2022-10-05T21:47:02.587Z,9.80
2022-10-05T21:49:34.636Z,11.00
2022-10-05T21:52:06.747Z,13.80
2022-10-05T21:54:38.281Z,10.50
2022-10-05T21:57:12.516Z,11.80
2022-10-05T21:59:44.205Z,11.00
2022-10-05T22:02:15.677Z,9.80
2022-10-05T22:04:47.070Z,9.60
2022-10-05T22:07:20.863Z,13.10
2022-10-05T22:09:52.939Z,11.10
2022-10-05T22:12:26.647Z,10.80
2022-10-05T22:14:58.289Z,12.90
2022-10-05T22:17:31.986Z,9.50
2022-10-05T22:20:03.905Z,11.60
2022-10-05T22:22:35.335Z,13.50
2022-10-05T22:25:07.507Z,10.60
2022-10-05T22:27:40.349Z,10.70
2022-10-05T22:30:15.006Z,9.10
2022-10-05T22:35:16.629Z,8.90
2022-10-05T22:37:47.842Z,10.60
2022-10-05T22:40:19.525Z,10.60
2022-10-05T22:42:50.924Z,10.00
2022-10-05T22:45:22.165Z,9.60
2022-10-05T22:47:53.387Z,10.00
2022-10-05T22:50:24.760Z,9.70
2022-10-05T22:52:56.277Z,10.60
2022-10-05T22:55:27.634Z,9.90
2022-10-05T22:57:59.072Z,9.30
2022-10-05T23:00:53.469Z,12.00
2022-10-05T23:03:21.568Z,11.00
2022-10-05T23:05:59.531Z,10.70
2022-10-05T23:08:31.396Z,12.00
2022-10-05T23:11:06.483Z,10.40
2022-10-05T23:13:38.168Z,9.40
2022-10-05T23:16:13.885Z,10.70
2022-10-05T23:18:47.205Z,8.40
2022-10-05T23:21:19.335Z,7.30
2022-10-05T23:23:52.470Z,9.80
2022-10-05T23:26:25.454Z,8.80
2022-10-05T23:28:56.723Z,7.90
2022-10-05T23:31:31.318Z,11.30
2022-10-05T23:34:02.626Z,9.70
2022-10-05T23:36:33.968Z,8.50
2022-10-05T23:39:05.555Z,8.60
2022-10-05T23:41:36.837Z,9.70
2022-10-05T23:44:08.171Z,12.50
2022-10-05T23:46:39.543Z,9.50
2022-10-05T23:49:10.851Z,8.10
2022-10-05T23:51:42.634Z,9.50
2022-10-05T23:54:14.656Z,10.80
2022-10-05T23:56:46.009Z,10.50
2022-10-05T23:59:17.282Z,8.40
